Time;durP1;ratioP1;P1;durP2;ratioP2;P2;SDS_P1;SDS_P2;PMS_P1;PMS_P2;Temp;Humidity;BMP_temperature;BMP_pressure;BME280_temperature;BME280_humidity;BME280_pressure;Samples;Min_cycle;Max_cycle;Signal;HPM_P1;HPM_P2
2022/03/29 00:00:17;;;;;;;21.83;14.00;;;;;;;7.57;61.62;101027.66;688016;28;1288;-90
2022/03/29 00:00:38;;;;;;;20.50;13.40;;;;;;;7.50;61.39;101016.09;687914;28;1373;-90
2022/03/29 00:00:59;;;;;;;21.77;13.73;;;;;;;7.45;61.95;101002.94;685271;28;1056;-89
2022/03/29 00:01:20;;;;;;;22.60;13.38;;;;;;;7.49;61.49;101012.59;687786;28;1278;-89
2022/03/29 00:01:40;;;;;;;22.48;13.60;;;;;;;7.47;61.73;101013.34;690722;28;1211;-89
2022/03/29 00:02:01;;;;;;;22.23;13.53;;;;;;;7.48;61.83;101013.44;682503;28;1982;-90
2022/03/29 00:02:22;;;;;;;24.33;14.48;;;;;;;7.50;61.91;101010.91;691325;28;1308;-90
2022/03/29 00:02:44;;;;;;;24.92;14.63;;;;;;;7.52;61.92;101022.25;688507;28;1478;-90
2022/03/29 00:03:05;;;;;;;24.40;14.50;;;;;;;7.53;61.58;101011.03;690604;28;1718;-90
2022/03/29 00:03:27;;;;;;;24.20;14.40;;;;;;;7.57;62.08;101028.56;694136;28;1244;-90
2022/03/29 00:03:47;;;;;;;23.55;14.25;;;;;;;7.47;61.76;101002.97;690848;28;788;-88
2022/03/29 00:04:08;;;;;;;21.83;13.80;;;;;;;7.52;61.92;101017.06;690877;28;1024;-90
2022/03/29 00:04:29;;;;;;;19.60;13.40;;;;;;;7.54;61.74;101018.91;685213;28;1269;-89
2022/03/29 00:04:49;;;;;;;19.98;13.70;;;;;;;7.53;61.71;101024.03;690242;28;1663;-89
2022/03/29 00:05:10;;;;;;;22.40;13.88;;;;;;;7.49;61.72;101003.94;690654;28;1103;-90
2022/03/29 00:05:31;;;;;;;23.20;14.03;;;;;;;7.51;61.86;101012.69;692027;28;1185;-89
2022/03/29 00:05:51;;;;;;;26.33;14.75;;;;;;;7.55;61.98;101017.19;688258;28;1077;-89
2022/03/29 00:06:12;;;;;;;25.27;15.07;;;;;;;7.48;62.02;101005.66;685308;28;1024;-90
2022/03/29 00:06:32;;;;;;;24.08;14.55;;;;;;;7.58;62.11;101019.94;690691;28;1447;-90
2022/03/29 00:06:54;;;;;;;21.70;13.77;;;;;;;7.50;61.83;101009.19;688032;28;1208;-89
2022/03/29 00:07:14;;;;;;;22.85;13.75;;;;;;;7.50;62.07;101008.31;687818;28;1252;-89
2022/03/29 00:07:35;;;;;;;23.67;14.20;;;;;;;7.47;62.10;101005.56;687955;28;1202;-90
2022/03/29 00:07:56;;;;;;;22.75;14.48;;;;;;;7.56;62.23;101018.09;688034;28;1244;-89
2022/03/29 00:08:17;;;;;;;24.20;14.27;;;;;;;7.52;61.88;101014.47;685320;28;1248;-89
2022/03/29 00:08:37;;;;;;;25.15;14.80;;;;;;;7.52;61.92;101011.88;687562;28;1282;-89
2022/03/29 00:08:58;;;;;;;31.50;15.30;;;;;;;7.50;62.03;101005.72;687999;28;1186;-89
2022/03/29 00:09:19;;;;;;;29.38;15.27;;;;;;;7.55;61.92;101022.38;685292;28;1161;-90
2022/03/29 00:09:40;;;;;;;29.35;15.10;;;;;;;7.50;62.15;101010.91;690092;28;1321;-89
2022/03/29 00:10:04;;;;;;;24.80;14.93;;;;;;;7.49;61.87;101014.34;690882;28;1445;-90
2022/03/29 00:10:25;;;;;;;27.23;15.00;;;;;;;7.46;62.17;100996.00;688661;28;1252;-90
2022/03/29 00:10:46;;;;;;;32.10;15.95;;;;;;;7.48;61.83;101012.53;685483;28;1502;-89
2022/03/29 00:11:07;;;;;;;31.58;15.57;;;;;;;7.56;62.08;101016.38;690768;28;1175;-90
2022/03/29 00:11:27;;;;;;;28.67;15.03;;;;;;;7.53;62.32;101016.22;690715;28;1119;-90
2022/03/29 00:11:48;;;;;;;24.30;14.13;;;;;;;7.46;61.92;101003.78;688116;28;1280;-89
2022/03/29 00:12:09;;;;;;;28.08;14.50;;;;;;;7.49;62.08;101003.94;690608;28;1496;-90
2022/03/29 00:12:31;;;;;;;27.42;14.85;;;;;;;7.52;61.98;101012.75;690551;28;1280;-89
2022/03/29 00:12:53;;;;;;;27.30;14.77;;;;;;;7.47;62.25;101000.38;690595;28;1288;-90
2022/03/29 00:13:14;;;;;;;29.38;15.57;;;;;;;7.51;62.29;101010.97;685232;28;1572;-88
2022/03/29 00:13:34;;;;;;;30.87;15.93;;;;;;;7.54;62.04;101012.81;687214;28;1248;-90
2022/03/29 00:13:55;;;;;;;30.10;15.77;;;;;;;7.51;62.02;100999.69;693540;28;1173;-90
2022/03/29 00:14:27;;;;;;;25.40;15.40;;;;;;;7.48;62.06;101003.03;694224;28;1787;-88
2022/03/29 00:14:48;;;;;;;24.90;15.18;;;;;;;7.54;62.15;101013.72;688056;28;1096;-90
2022/03/29 00:15:09;;;;;;;25.13;15.20;;;;;;;7.43;61.92;101006.28;688121;28;1292;-89
2022/03/29 00:15:29;;;;;;;24.58;14.75;;;;;;;7.39;62.25;101003.50;694531;28;1300;-90
2022/03/29 00:15:50;;;;;;;24.98;14.85;;;;;;;7.33;62.21;101003.25;687927;28;1196;-90
2022/03/29 00:16:11;;;;;;;25.27;15.10;;;;;;;7.46;62.38;101011.59;687889;28;1256;-90
2022/03/29 00:16:34;;;;;;;25.88;15.30;;;;;;;7.47;62.91;100998.69;687376;28;1342;-89
2022/03/29 00:16:55;;;;;;;26.70;15.30;;;;;;;7.47;62.56;101009.06;693451;28;1244;-90
2022/03/29 00:17:15;;;;;;;27.37;15.30;;;;;;;7.50;62.30;101005.72;693587;28;953;-90
2022/03/29 00:17:36;;;;;;;26.13;15.30;;;;;;;7.49;62.63;101006.53;690706;28;1103;-90
2022/03/29 00:17:57;;;;;;;27.30;15.32;;;;;;;7.48;63.02;101003.03;690848;28;803;-90
2022/03/29 00:18:17;;;;;;;26.20;15.10;;;;;;;7.53;62.48;101005.84;682659;28;1126;-90
2022/03/29 00:18:38;;;;;;;26.00;15.35;;;;;;;7.52;62.18;101007.56;693073;28;1212;-90
2022/03/29 00:18:59;;;;;;;24.73;15.70;;;;;;;7.52;62.54;101004.97;690835;28;1451;-90
2022/03/29 00:19:19;;;;;;;23.42;15.60;;;;;;;7.52;62.43;100998.88;687794;28;1708;-90
2022/03/29 00:19:40;;;;;;;24.43;15.20;;;;;;;7.46;62.08;100990.81;687341;28;1257;-89
2022/03/29 00:20:01;;;;;;;26.33;14.88;;;;;;;7.45;62.46;100997.72;693372;28;1217;-90
2022/03/29 00:20:21;;;;;;;28.98;15.38;;;;;;;7.47;62.25;100989.97;690808;28;1213;-90
2022/03/29 00:20:43;;;;;;;27.97;15.70;;;;;;;7.54;62.42;101010.22;693517;28;810;-90
2022/03/29 00:21:04;;;;;;;27.20;16.38;;;;;;;7.50;62.28;101001.41;685285;28;1385;-90
2022/03/29 00:21:25;;;;;;;26.50;16.40;;;;;;;7.50;62.41;101000.53;685870;28;1269;-89
2022/03/29 00:21:46;;;;;;;25.10;15.77;;;;;;;7.47;62.18;100996.09;685389;28;1910;-89
2022/03/29 00:22:06;;;;;;;23.70;14.80;;;;;;;7.53;62.81;101005.84;689227;28;1407;-89
2022/03/29 00:22:27;;;;;;;23.35;14.50;;;;;;;7.50;62.36;101003.13;687877;28;1171;-90
2022/03/29 00:22:47;;;;;;;26.27;15.30;;;;;;;7.52;62.51;100996.28;688049;28;1200;-89
2022/03/29 00:23:08;;;;;;;26.25;15.95;;;;;;;7.55;62.57;100999.00;687846;28;1179;-90
2022/03/29 00:23:28;;;;;;;25.63;15.70;;;;;;;7.50;62.73;101000.53;689240;28;1197;-90
2022/03/29 00:23:50;;;;;;;26.20;15.07;;;;;;;7.52;62.46;101004.97;687638;28;1239;-89
2022/03/29 00:24:10;;;;;;;26.45;15.00;;;;;;;7.51;62.81;100997.97;687291;28;1393;-89
2022/03/29 00:24:31;;;;;;;25.40;15.10;;;;;;;7.49;62.16;100998.75;690688;28;1000;-90
2022/03/29 00:24:51;;;;;;;22.40;15.13;;;;;;;7.49;62.23;100993.56;690679;28;1359;-90
2022/03/29 00:25:13;;;;;;;29.00;15.80;;;;;;;7.50;62.56;100987.53;688485;28;1361;-90
2022/03/29 00:25:34;;;;;;;31.92;16.38;;;;;;;7.57;62.56;101006.88;690430;28;1817;-90
2022/03/29 00:25:54;;;;;;;33.25;16.92;;;;;;;7.49;62.85;100994.44;690624;28;1233;-90
2022/03/29 00:26:16;;;;;;;26.57;16.10;;;;;;;7.49;62.63;100998.75;689913;28;1161;-89
2022/03/29 00:26:36;;;;;;;25.02;15.85;;;;;;;7.48;62.64;100991.75;687837;28;1298;-90
2022/03/29 00:26:58;;;;;;;26.20;16.00;;;;;;;7.50;62.65;100996.22;690962;28;791;-89
2022/03/29 00:27:19;;;;;;;26.83;16.20;;;;;;;7.45;62.16;100983.84;693406;28;1741;-90
2022/03/29 00:27:40;;;;;;;26.55;16.25;;;;;;;7.47;62.72;100989.97;690607;28;926;-90
2022/03/29 00:28:01;;;;;;;27.20;16.38;;;;;;;7.46;62.54;100983.03;688049;28;1273;-90
2022/03/29 00:28:21;;;;;;;28.10;16.60;;;;;;;7.44;62.40;100988.16;688373;28;1221;-90
2022/03/29 00:28:43;;;;;;;28.45;16.35;;;;;;;7.49;62.71;100996.16;696210;28;1303;-89
2022/03/29 00:29:03;;;;;;;27.77;16.50;;;;;;;7.49;62.96;100988.38;682618;28;1673;-90
2022/03/29 00:29:24;;;;;;;27.95;17.00;;;;;;;7.47;62.61;100984.78;685567;28;1731;-90
2022/03/29 00:29:44;;;;;;;27.63;16.98;;;;;;;7.48;62.91;100984.88;687007;28;1710;-89
2022/03/29 00:30:07;;;;;;;27.17;16.50;;;;;;;7.52;62.83;100989.38;689742;28;1459;-89
2022/03/29 00:30:28;;;;;;;27.48;16.45;;;;;;;7.52;62.63;100989.38;687459;28;1335;-90
2022/03/29 00:30:49;;;;;;;26.92;16.50;;;;;;;7.58;63.00;101001.75;690892;28;791;-89
2022/03/29 00:31:11;;;;;;;25.30;15.75;;;;;;;7.48;62.81;100981.38;687952;28;1278;-90
2022/03/29 00:31:32;;;;;;;25.15;16.02;;;;;;;7.53;62.85;100985.06;686548;28;1367;-89
2022/03/29 00:31:52;;;;;;;25.23;16.33;;;;;;;7.50;62.90;100988.41;687898;28;1569;-90
2022/03/29 00:32:13;;;;;;;27.63;16.87;;;;;;;7.52;62.40;100988.50;690349;28;1548;-90
2022/03/29 00:32:34;;;;;;;29.03;16.50;;;;;;;7.50;62.89;100990.13;689021;28;1222;-90
2022/03/29 00:32:55;;;;;;;29.75;16.40;;;;;;;7.52;62.70;100983.28;685104;28;1544;-90
2022/03/29 00:33:16;;;;;;;33.00;17.08;;;;;;;7.49;62.59;100983.19;688033;28;1038;-90
2022/03/29 00:33:37;;;;;;;31.83;17.03;;;;;;;7.52;63.07;100991.09;687352;28;1428;-89
2022/03/29 00:33:57;;;;;;;32.42;17.00;;;;;;;7.51;62.90;100984.13;685342;28;1230;-89
2022/03/29 00:34:18;;;;;;;25.92;15.82;;;;;;;7.52;62.73;100991.09;682561;28;1279;-90
2022/03/29 00:34:40;;;;;;;25.43;15.50;;;;;;;7.44;62.99;100969.09;687800;28;1357;-90
2022/03/29 00:35:01;;;;;;;25.38;15.38;;;;;;;7.52;62.90;100991.09;687827;28;1454;-90
2022/03/29 00:35:24;;;;;;;27.00;16.02;;;;;;;7.45;62.66;100970.84;684790;28;1373;-90
2022/03/29 00:35:45;;;;;;;26.90;15.80;;;;;;;7.52;62.96;100983.28;685081;28;1362;-90
2022/03/29 00:36:06;;;;;;;26.58;16.17;;;;;;;7.45;62.94;100970.84;687964;28;1297;-90
2022/03/29 00:36:28;;;;;;;28.83;16.15;;;;;;;7.49;62.97;100985.78;691286;28;1365;-89
2022/03/29 00:36:49;;;;;;;28.30;16.30;;;;;;;7.44;63.10;100969.09;685386;28;1303;-89
2022/03/29 00:37:09;;;;;;;29.15;16.13;;;;;;;7.50;62.78;100984.94;688477;28;1790;-90
2022/03/29 00:37:30;;;;;;;29.33;16.80;;;;;;;7.46;63.26;100972.63;691987;28;1123;-90
2022/03/29 00:37:51;;;;;;;31.27;17.00;;;;;;;7.50;62.62;100982.34;691734;28;1556;-89
2022/03/29 00:38:12;;;;;;;33.35;16.90;;;;;;;7.48;63.13;100976.19;689823;28;1645;-89
2022/03/29 00:38:32;;;;;;;31.97;16.60;;;;;;;7.53;62.94;100985.97;684149;28;1302;-90
2022/03/29 00:38:54;;;;;;;28.63;16.60;;;;;;;7.49;62.90;100968.47;685701;28;1367;-90
2022/03/29 00:39:14;;;;;;;30.90;16.95;;;;;;;7.71;62.83;100966.81;693447;28;1553;-90
2022/03/29 00:39:35;;;;;;;31.17;17.23;;;;;;;7.86;62.15;100968.28;695714;28;1130;-90
2022/03/29 00:39:56;;;;;;;31.20;17.30;;;;;;;7.92;62.19;100973.75;697892;28;1731;-90
2022/03/29 00:40:16;;;;;;;26.40;16.77;;;;;;;7.96;61.64;100970.44;695908;28;1102;-90
2022/03/29 00:40:37;;;;;;;26.42;16.98;;;;;;;7.99;61.96;100972.28;695916;28;1201;-89
2022/03/29 00:40:59;;;;;;;28.10;16.98;;;;;;;8.01;61.80;100989.72;690848;28;1329;-90
2022/03/29 00:41:20;;;;;;;30.60;17.30;;;;;;;7.95;61.65;100966.97;690375;28;1613;-89
2022/03/29 00:41:40;;;;;;;29.80;16.88;;;;;;;8.05;61.66;100972.53;687898;28;1212;-90
2022/03/29 00:42:02;;;;;;;28.97;17.20;;;;;;;8.02;61.72;100975.00;682541;28;1975;-90
2022/03/29 00:42:22;;;;;;;30.95;17.88;;;;;;;7.82;62.03;100972.47;685468;28;1273;-89
2022/03/29 00:42:43;;;;;;;29.37;17.23;;;;;;;7.76;62.16;100978.28;689926;28;1197;-89
2022/03/29 00:43:05;;;;;;;29.05;16.58;;;;;;;7.71;62.14;100973.69;689708;28;1238;-90
2022/03/29 00:43:26;;;;;;;25.95;15.50;;;;;;;7.66;62.46;100968.31;683291;28;1302;-88
2022/03/29 00:43:47;;;;;;;27.48;16.05;;;;;;;7.66;62.50;100976.09;689693;28;1693;-89
2022/03/29 00:44:08;;;;;;;27.75;16.67;;;;;;;7.64;62.72;100978.66;690673;28;1161;-90
2022/03/29 00:44:34;;;;;;;27.87;17.53;;;;;;;7.64;62.71;100981.25;689241;28;1377;-89
2022/03/29 00:44:56;;;;;;;26.40;17.35;;;;;;;7.61;62.78;100978.50;682733;28;1341;-89
2022/03/29 00:45:16;;;;;;;26.05;16.88;;;;;;;7.58;62.93;100973.19;687794;28;1248;-90
2022/03/29 00:45:37;;;;;;;25.65;16.65;;;;;;;7.64;62.42;100976.06;692680;28;1337;-89
2022/03/29 00:45:58;;;;;;;25.35;16.73;;;;;;;7.56;62.66;100967.03;690652;28;1276;-91
2022/03/29 00:46:20;;;;;;;26.20;16.65;;;;;;;7.57;62.95;100970.50;687933;28;1071;-90
2022/03/29 00:46:40;;;;;;;28.30;17.17;;;;;;;7.55;62.93;100962.63;690755;28;1185;-88
2022/03/29 00:47:02;;;;;;;27.33;16.50;;;;;;;7.59;62.31;100972.34;685397;28;1853;-89
2022/03/29 00:47:23;;;;;;;27.00;16.20;;;;;;;7.64;62.97;100986.44;690039;28;1229;-90
2022/03/29 00:47:44;;;;;;;28.35;16.45;;;;;;;7.55;62.60;100967.84;688127;28;1370;-89
2022/03/29 00:48:08;;;;;;;26.85;16.35;;;;;;;7.60;63.02;100976.72;685293;28;1105;-89
2022/03/29 00:48:28;;;;;;;27.58;16.88;;;;;;;7.60;62.86;100984.53;685263;28;1256;-90
2022/03/29 00:48:49;;;;;;;25.83;16.43;;;;;;;7.57;62.67;100970.50;688059;28;1524;-89
2022/03/29 00:49:10;;;;;;;26.98;16.65;;;;;;;7.62;62.70;100980.28;687844;28;1258;-89
2022/03/29 00:49:31;;;;;;;27.00;16.25;;;;;;;7.55;62.80;100967.84;684193;28;1407;-89
2022/03/29 00:49:52;;;;;;;28.25;16.50;;;;;;;7.60;62.68;100975.81;687921;28;1348;-90
2022/03/29 00:50:13;;;;;;;30.40;16.60;;;;;;;7.62;62.83;100974.22;693260;28;1212;-90
2022/03/29 00:50:37;;;;;;;29.67;16.38;;;;;;;7.56;62.71;100968.75;690671;28;1189;-88
2022/03/29 00:50:58;;;;;;;28.63;16.98;;;;;;;7.57;63.21;100973.09;685197;28;1664;-90
2022/03/29 00:51:19;;;;;;;26.20;17.15;;;;;;;7.60;62.69;100978.41;693298;28;1229;-89
2022/03/29 00:51:39;;;;;;;27.03;17.30;;;;;;;7.60;62.68;100976.72;690459;28;1303;-89
2022/03/29 00:52:02;;;;;;;27.27;16.92;;;;;;;7.65;62.83;100990.81;685237;28;1113;-89
2022/03/29 00:52:22;;;;;;;29.50;17.25;;;;;;;7.56;62.86;100961.84;685074;28;1140;-90
2022/03/29 00:52:43;;;;;;;30.17;17.33;;;;;;;7.61;62.75;100975.03;690729;28;803;-89
2022/03/29 00:53:05;;;;;;;31.85;17.85;;;;;;;7.60;62.88;100965.44;690562;28;1165;-89
2022/03/29 00:53:26;;;;;;;31.02;17.35;;;;;;;7.60;63.00;100968.03;686170;28;1202;-89
2022/03/29 00:53:48;;;;;;;27.23;16.23;;;;;;;7.60;62.60;100968.03;685304;28;1158;-89
2022/03/29 00:54:09;;;;;;;29.90;16.88;;;;;;;7.58;63.09;100962.78;685274;28;1382;-90
2022/03/29 00:54:35;;;;;;;28.30;16.57;;;;;;;7.65;62.86;100980.41;684994;28;1892;-90
2022/03/29 00:54:56;;;;;;;29.45;16.95;;;;;;;7.56;62.93;100959.25;682587;28;1360;-89
2022/03/29 00:55:17;;;;;;;27.35;16.30;;;;;;;7.65;62.86;100971.72;687837;28;1354;-89
2022/03/29 00:55:38;;;;;;;27.20;16.40;;;;;;;7.57;62.82;100963.63;685124;28;1166;-90
2022/03/29 00:56:00;;;;;;;27.05;16.73;;;;;;;7.59;62.86;100964.56;682567;28;1200;-90
2022/03/29 00:56:20;;;;;;;26.75;16.75;;;;;;;7.61;62.89;100975.91;687154;28;1722;-89
2022/03/29 00:56:41;;;;;;;28.38;16.45;;;;;;;7.59;62.66;100963.66;685135;28;1304;-90
2022/03/29 00:57:03;;;;;;;29.08;16.48;;;;;;;7.56;62.86;100966.13;682559;29;1231;-90
2022/03/29 00:57:25;;;;;;;28.98;17.05;;;;;;;7.56;62.76;100958.34;685057;28;1798;-90
2022/03/29 00:57:46;;;;;;;27.60;17.45;;;;;;;7.56;62.87;100951.47;690637;28;1256;-89
2022/03/29 00:58:07;;;;;;;28.67;17.25;;;;;;;7.59;62.99;100969.75;690646;28;1658;-89
2022/03/29 00:58:29;;;;;;;29.20;17.35;;;;;;;7.52;62.72;100962.53;683451;28;1255;-90
2022/03/29 00:58:49;;;;;;;28.30;17.20;;;;;;;7.56;62.44;100963.53;685360;28;1242;-90
2022/03/29 00:59:10;;;;;;;28.63;17.13;;;;;;;7.50;63.00;100964.16;688002;28;1224;-90
2022/03/29 00:59:31;;;;;;;27.20;16.20;;;;;;;7.54;62.97;100968.66;685711;28;1242;-89
2022/03/29 00:59:52;;;;;;;26.42;15.85;;;;;;;7.52;63.04;100967.72;679682;29;1270;-90
2022/03/29 01:00:16;;;;;;;24.73;15.13;;;;;;;7.47;62.96;100957.13;688859;28;1258;-88
2022/03/29 01:00:37;;;;;;;26.55;16.00;;;;;;;7.51;63.16;100968.53;692887;28;1122;-89
2022/03/29 01:01:01;;;;;;;28.30;16.50;;;;;;;7.56;62.96;100973.94;688384;28;1251;-89
2022/03/29 01:01:24;;;;;;;29.15;17.30;;;;;;;7.51;62.83;100971.13;687709;28;1541;-88
2022/03/29 01:01:44;;;;;;;27.67;17.50;;;;;;;7.43;62.93;100962.13;687946;28;1248;-90
2022/03/29 01:02:05;;;;;;;25.63;16.80;;;;;;;7.55;63.06;100978.22;693133;28;1949;-90
2022/03/29 01:02:26;;;;;;;25.83;16.27;;;;;;;7.46;63.06;100963.16;687677;28;1142;-90
2022/03/29 01:02:47;;;;;;;26.48;16.35;;;;;;;7.48;62.81;100964.09;693381;28;1255;-89
2022/03/29 01:03:08;;;;;;;27.10;16.60;;;;;;;7.46;62.91;100967.44;696179;28;1185;-89
2022/03/29 01:03:30;;;;;;;26.42;17.08;;;;;;;7.42;62.90;100962.94;687851;28;1398;-90
2022/03/29 01:03:50;;;;;;;25.08;16.40;;;;;;;7.46;62.89;100967.44;693323;28;1298;-90
2022/03/29 01:04:11;;;;;;;26.30;16.53;;;;;;;7.43;63.12;100967.31;690670;28;1154;-89
2022/03/29 01:04:32;;;;;;;27.60;16.90;;;;;;;7.37;63.19;100961.03;687677;28;1280;-89
2022/03/29 01:04:52;;;;;;;27.75;17.27;;;;;;;7.35;63.34;100960.06;687747;28;1288;-90
2022/03/29 01:05:13;;;;;;;26.50;16.80;;;;;;;7.45;63.18;100976.06;687989;28;1540;-89
2022/03/29 01:05:33;;;;;;;25.65;16.55;;;;;;;7.34;62.91;100958.31;686939;28;1151;-90
2022/03/29 01:05:54;;;;;;;27.50;16.80;;;;;;;7.40;63.40;100974.16;687728;28;821;-90
2022/03/29 01:06:14;;;;;;;28.80;17.63;;;;;;;7.37;62.78;100966.22;690518;28;1080;-90
2022/03/29 01:06:38;;;;;;;28.88;17.67;;;;;;;7.34;63.16;100958.31;687758;28;1199;-90
2022/03/29 01:06:58;;;;;;;29.40;17.90;;;;;;;7.35;63.27;100961.78;688029;28;862;-90
2022/03/29 01:07:19;;;;;;;28.02;17.15;;;;;;;7.33;63.18;100958.22;687675;28;1564;-90
2022/03/29 01:07:40;;;;;;;30.58;16.75;;;;;;;7.39;62.91;100971.47;689378;28;1444;-90
2022/03/29 01:08:01;;;;;;;29.35;16.27;;;;;;;7.34;63.39;100962.59;687467;28;1703;-89
2022/03/29 01:08:24;;;;;;;31.80;17.17;;;;;;;7.37;63.14;100974.00;690353;28;1347;-90
2022/03/29 01:08:45;;;;;;;28.98;17.20;;;;;;;7.29;62.84;100962.38;692125;28;1342;-90
2022/03/29 01:09:05;;;;;;;28.42;16.92;;;;;;;7.26;63.03;100951.88;693712;28;1499;-90
2022/03/29 01:09:27;;;;;;;25.77;16.10;;;;;;;7.33;63.64;100969.50;690264;28;1441;-89
2022/03/29 01:09:47;;;;;;;26.60;16.17;;;;;;;7.29;63.23;100964.97;687521;28;855;-89
2022/03/29 01:10:08;;;;;;;26.90;16.60;;;;;;;7.27;63.37;100951.94;690593;28;1184;-90
2022/03/29 01:10:29;;;;;;;27.60;16.67;;;;;;;7.27;63.07;100953.66;685836;28;1224;-90
2022/03/29 01:10:49;;;;;;;28.70;17.45;;;;;;;7.32;63.35;100959.03;685155;28;1192;-90
2022/03/29 01:11:12;;;;;;;29.67;17.98;;;;;;;7.36;63.15;100971.31;685142;28;1677;-89
2022/03/29 01:11:32;;;;;;;30.52;18.13;;;;;;;7.28;63.08;100963.22;689391;28;1734;-90
2022/03/29 01:11:53;;;;;;;29.42;17.40;;;;;;;7.32;63.09;100966.84;684392;28;1299;-90
2022/03/29 01:12:15;;;;;;;28.15;16.77;;;;;;;7.27;63.27;100956.25;689894;28;1234;-87
2022/03/29 01:12:37;;;;;;;30.88;17.17;;;;;;;7.23;63.42;100947.44;693359;28;1704;-87
2022/03/29 01:12:58;;;;;;;31.92;17.70;;;;;;;7.24;63.20;100950.91;687978;28;1268;-90
2022/03/29 01:13:19;;;;;;;33.22;17.55;;;;;;;7.30;63.17;100958.97;687763;28;1170;-90
2022/03/29 01:13:41;;;;;;;30.90;17.30;;;;;;;7.27;63.25;100956.25;687869;28;1099;-90
2022/03/29 01:14:03;;;;;;;29.50;16.48;;;;;;;7.29;63.54;100954.59;685076;28;1288;-89
2022/03/29 01:14:26;;;;;;;29.60;17.38;;;;;;;7.31;63.21;100965.94;682882;28;1300;-89
2022/03/29 01:14:47;;;;;;;29.80;17.83;;;;;;;7.29;63.50;100961.53;687754;28;1360;-90
2022/03/29 01:15:10;;;;;;;30.70;17.88;;;;;;;7.33;63.54;100959.13;687943;28;1385;-89
2022/03/29 01:15:36;;;;;;;30.48;17.42;;;;;;;7.26;63.67;100952.75;686703;28;1240;-90
2022/03/29 01:17:38;;;;;;;28.30;17.00;;;;;;;7.27;63.38;100951.06;687741;28;1305;-88
2022/03/29 01:17:59;;;;;;;29.25;17.63;;;;;;;7.26;63.67;100951.88;693368;28;1312;-90
2022/03/29 01:18:26;;;;;;;28.77;17.90;;;;;;;7.28;63.29;100955.44;689551;28;1551;-89
2022/03/29 01:18:47;;;;;;;30.63;18.38;;;;;;;7.34;63.55;100963.50;687868;28;1392;-90
2022/03/29 01:19:11;;;;;;;31.67;18.75;;;;;;;7.36;63.39;100966.13;687769;28;1218;-89
2022/03/29 01:19:33;;;;;;;30.08;18.23;;;;;;;7.28;63.38;100958.03;686143;28;1351;-90
2022/03/29 01:19:57;;;;;;;27.90;17.42;;;;;;;7.25;63.65;100944.91;685188;28;1319;-89
2022/03/29 01:20:24;;;;;;;28.15;17.70;;;;;;;7.25;63.47;100950.13;686757;28;1572;-90
2022/03/29 01:20:48;;;;;;;28.58;18.17;;;;;;;7.24;63.90;100940.53;685251;28;1356;-89
2022/03/29 01:21:12;;;;;;;30.00;17.98;;;;;;;7.34;63.48;100960.91;682088;29;1274;-90
2022/03/29 01:21:35;;;;;;;30.90;17.98;;;;;;;7.31;63.59;100947.75;682345;28;1376;-90
2022/03/29 01:22:02;;;;;;;33.05;18.20;;;;;;;7.37;63.72;100961.03;686313;28;1985;-88
2022/03/29 01:22:23;;;;;;;32.72;18.45;;;;;;;7.30;63.49;100951.19;690275;28;1240;-90
2022/03/29 01:22:46;;;;;;;31.17;18.35;;;;;;;7.27;63.73;100944.13;690607;28;1459;-90
2022/03/29 01:23:08;;;;;;;27.50;18.10;;;;;;;7.32;63.60;100948.66;690613;28;969;-90
2022/03/29 01:23:29;;;;;;;28.30;17.67;;;;;;;7.33;63.35;100953.94;688210;28;1382;-89
2022/03/29 01:23:50;;;;;;;30.10;18.20;;;;;;;7.27;63.59;100936.34;687915;28;1284;-89
2022/03/29 01:24:11;;;;;;;31.88;18.60;;;;;;;7.28;63.72;100947.63;687715;28;1573;-90
2022/03/29 01:24:34;;;;;;;31.67;18.85;;;;;;;7.30;63.51;100946.00;683099;28;1712;-89
2022/03/29 01:24:55;;;;;;;30.05;18.30;;;;;;;7.32;63.67;100954.75;685273;28;1277;-89
2022/03/29 01:25:18;;;;;;;30.05;18.38;;;;;;;7.30;63.44;100948.59;685075;28;1360;-87
2022/03/29 01:25:42;;;;;;;33.15;18.60;;;;;;;7.35;63.16;100951.38;684894;28;1236;-90
2022/03/29 01:26:03;;;;;;;33.47;19.10;;;;;;;7.35;63.73;100951.38;682569;29;1399;-89
2022/03/29 01:26:25;;;;;;;31.60;18.92;;;;;;;7.33;63.33;100950.44;684963;28;1260;-89
2022/03/29 01:26:47;;;;;;;29.77;18.55;;;;;;;7.37;63.35;100955.81;685277;28;1346;-90
2022/03/29 01:27:08;;;;;;;30.27;18.45;;;;;;;7.32;63.73;100954.75;685295;28;1254;-89
2022/03/29 01:27:31;;;;;;;31.67;18.45;;;;;;;7.33;63.80;100960.81;691312;28;1472;-89
2022/03/29 01:27:53;;;;;;;30.50;18.05;;;;;;;7.30;63.72;100946.00;690479;28;1387;-90
2022/03/29 01:28:15;;;;;;;31.30;18.10;;;;;;;7.38;63.32;100954.13;693391;28;1324;-89
2022/03/29 01:28:37;;;;;;;31.85;17.77;;;;;;;7.32;63.49;100952.16;689932;28;1281;-89
2022/03/29 01:28:58;;;;;;;32.83;17.88;;;;;;;7.30;63.82;100948.59;687926;28;1215;-89
2022/03/29 01:29:22;;;;;;;31.05;18.08;;;;;;;7.31;63.57;100952.94;690576;28;1229;-89
2022/03/29 01:29:44;;;;;;;29.45;18.70;;;;;;;7.33;63.56;100958.22;692492;28;1267;-89
2022/03/29 01:30:05;;;;;;;29.08;18.40;;;;;;;7.29;63.61;100948.53;691011;28;1412;-90
2022/03/29 01:30:26;;;;;;;29.85;18.27;;;;;;;7.30;63.70;100948.59;692235;28;1591;-89
2022/03/29 01:30:50;;;;;;;31.75;18.35;;;;;;;7.29;63.75;100944.22;687632;28;1367;-89
2022/03/29 01:31:12;;;;;;;33.50;18.88;;;;;;;7.29;63.59;100957.19;685638;28;1500;-90
2022/03/29 01:31:34;;;;;;;35.45;19.27;;;;;;;7.30;63.81;100946.00;690423;28;1259;-90
2022/03/29 01:31:56;;;;;;;33.72;19.58;;;;;;;7.31;63.81;100952.94;690566;28;1268;-89
2022/03/29 01:32:17;;;;;;;34.15;20.10;;;;;;;7.36;63.73;100956.66;690466;28;1446;-89
2022/03/29 01:32:43;;;;;;;31.83;18.67;;;;;;;7.32;63.49;100949.56;690516;28;1103;-89
2022/03/29 01:33:06;;;;;;;33.28;18.67;;;;;;;7.31;63.80;100950.34;687496;28;1266;-90
2022/03/29 01:33:27;;;;;;;32.75;18.95;;;;;;;7.37;63.79;100961.03;691610;28;1361;-89
2022/03/29 01:33:48;;;;;;;29.70;18.33;;;;;;;7.34;63.49;100953.09;693223;28;1461;-89
2022/03/29 01:34:09;;;;;;;30.00;18.23;;;;;;;7.33;63.76;100951.34;687934;28;1167;-89
2022/03/29 01:34:31;;;;;;;30.90;18.48;;;;;;;7.27;63.78;100936.34;687715;28;1318;-90
2022/03/29 01:34:52;;;;;;;30.92;18.65;;;;;;;7.27;64.00;100943.28;688064;28;1120;-90
2022/03/29 01:35:15;;;;;;;30.98;18.70;;;;;;;7.38;63.97;100955.00;685416;28;1711;-89
2022/03/29 01:35:36;;;;;;;32.85;19.05;;;;;;;7.38;63.52;100965.38;689911;28;1434;-89
2022/03/29 01:35:58;;;;;;;33.63;18.52;;;;;;;7.27;63.95;100945.88;692940;28;1373;-89
2022/03/29 01:36:18;;;;;;;31.65;18.38;;;;;;;7.29;64.14;100948.53;687892;28;1203;-89
2022/03/29 01:36:39;;;;;;;31.83;19.10;;;;;;;7.32;63.89;100954.75;689068;28;1154;-89
2022/03/29 01:36:59;;;;;;;32.47;19.02;;;;;;;7.30;63.70;100950.31;693123;28;1848;-89
2022/03/29 01:37:20;;;;;;;34.58;19.80;;;;;;;7.26;63.94;100939.78;690238;28;1192;-89
2022/03/29 01:37:41;;;;;;;32.53;19.20;;;;;;;7.31;64.13;100954.69;688038;28;1070;-88
2022/03/29 01:38:01;;;;;;;31.30;19.17;;;;;;;7.30;63.78;100950.31;687947;28;1218;-90
2022/03/29 01:38:22;;;;;;;32.85;18.95;;;;;;;7.23;63.73;100939.66;685541;28;1180;-89
2022/03/29 01:38:42;;;;;;;32.10;18.57;;;;;;;7.28;64.17;100952.84;685261;28;1258;-90
2022/03/29 01:39:03;;;;;;;33.17;18.80;;;;;;;7.27;63.79;100957.13;690443;28;1131;-90
2022/03/29 01:39:24;;;;;;;30.90;18.40;;;;;;;7.28;63.70;100950.22;690254;28;1213;-91
2022/03/29 01:39:44;;;;;;;32.57;19.30;;;;;;;7.33;63.71;100956.53;690225;28;1098;-90
2022/03/29 01:40:16;;;;;;;33.22;19.92;;;;;;;7.28;63.72;100952.84;690468;28;1187;-88
2022/03/29 01:40:37;;;;;;;31.80;20.05;;;;;;;7.28;63.74;100945.03;694839;28;1237;-88
2022/03/29 01:41:05;;;;;;;29.38;19.17;;;;;;;7.29;64.16;100944.22;687876;28;1307;-89
2022/03/29 01:41:30;;;;;;;27.38;17.92;;;;;;;7.25;63.96;100945.78;685725;28;1153;-89
2022/03/29 01:41:51;;;;;;;28.77;18.30;;;;;;;7.24;64.09;100948.31;682480;29;1976;-92
2022/03/29 01:42:11;;;;;;;30.92;18.67;;;;;;;7.24;64.24;100943.13;687959;28;983;-89
2022/03/29 01:42:32;;;;;;;32.40;19.40;;;;;;;7.31;64.29;100958.16;692879;28;1303;-89
2022/03/29 01:42:55;;;;;;;32.80;19.67;;;;;;;7.30;64.35;100956.38;693431;28;763;-90